createdAt,value
2022-08-31T00:00:44.252Z,18.39
2022-08-31T00:02:04.415Z,18.41
2022-08-31T00:03:25.346Z,18.35
2022-08-31T00:04:27.782Z,18.36
2022-08-31T00:05:29.592Z,18.36
2022-08-31T00:06:32.444Z,18.36
2022-08-31T00:07:35.420Z,18.35
2022-08-31T00:08:37.304Z,18.36
2022-08-31T00:09:39.245Z,18.35
2022-08-31T00:10:44.917Z,18.35
2022-08-31T00:11:46.882Z,18.35
2022-08-31T00:12:49.753Z,18.33
2022-08-31T00:13:52.032Z,18.31
2022-08-31T00:14:53.914Z,18.32
2022-08-31T00:15:56.047Z,18.33
2022-08-31T00:16:58.440Z,18.33
2022-08-31T00:18:00.286Z,18.35
2022-08-31T00:19:02.601Z,18.37
2022-08-31T00:20:05.238Z,18.38
2022-08-31T00:21:07.139Z,18.38
2022-08-31T00:22:09.110Z,18.40
2022-08-31T00:23:11.986Z,18.41
2022-08-31T00:24:14.775Z,18.42
2022-08-31T00:25:16.721Z,18.43
2022-08-31T00:26:19.022Z,18.44
2022-08-31T00:27:22.255Z,18.36
2022-08-31T00:28:24.273Z,18.28
2022-08-31T00:29:26.179Z,18.21
2022-08-31T00:30:28.264Z,18.13
2022-08-31T00:31:30.215Z,18.05
2022-08-31T00:32:32.117Z,18.02
2022-08-31T00:33:36.935Z,18.07
2022-08-31T00:34:38.766Z,18.06
2022-08-31T00:35:42.202Z,18.06
2022-08-31T00:36:46.420Z,18.09
2022-08-31T00:37:48.283Z,18.11
2022-08-31T00:38:50.779Z,18.14
2022-08-31T00:39:53.378Z,18.18
2022-08-31T00:40:55.344Z,18.21
2022-08-31T00:41:57.296Z,18.19
2022-08-31T00:43:00.041Z,18.12
2022-08-31T00:44:03.639Z,18.11
2022-08-31T00:45:06.240Z,18.04
2022-08-31T00:46:09.944Z,18.03
2022-08-31T00:47:11.935Z,18.04
2022-08-31T00:48:13.755Z,18.07
2022-08-31T00:49:21.274Z,18.09
2022-08-31T00:50:24.410Z,18.12
2022-08-31T00:51:28.085Z,18.16
2022-08-31T00:52:33.195Z,18.20
2022-08-31T00:53:39.509Z,18.22
2022-08-31T00:54:55.711Z,18.21
2022-08-31T00:55:58.354Z,18.19
2022-08-31T00:57:00.663Z,18.15
2022-08-31T00:58:09.693Z,18.10
2022-08-31T00:59:12.869Z,18.11
2022-08-31T01:00:17.081Z,18.10
2022-08-31T01:01:20.498Z,18.12
2022-08-31T01:02:22.452Z,18.10
2022-08-31T01:03:24.781Z,18.04
2022-08-31T01:04:26.722Z,18.05
2022-08-31T01:05:29.488Z,17.98
2022-08-31T01:06:31.830Z,17.95
2022-08-31T01:07:33.813Z,17.97
2022-08-31T01:08:35.711Z,17.98
2022-08-31T01:09:40.652Z,18.01
2022-08-31T01:10:47.300Z,18.00
2022-08-31T01:11:49.261Z,17.99
2022-08-31T01:12:53.011Z,17.98
2022-08-31T01:13:55.343Z,17.96
2022-08-31T01:14:57.787Z,17.94
2022-08-31T01:16:02.556Z,17.94
2022-08-31T01:17:04.792Z,17.96
2022-08-31T01:18:07.281Z,17.98
2022-08-31T01:19:13.936Z,18.02
2022-08-31T01:20:20.637Z,18.03
2022-08-31T01:21:25.498Z,18.06
2022-08-31T01:22:30.954Z,18.07
2022-08-31T01:23:34.460Z,18.06
2022-08-31T01:24:37.558Z,17.99
2022-08-31T01:25:40.066Z,17.97
2022-08-31T01:26:42.307Z,17.92
2022-08-31T01:27:51.832Z,17.82
2022-08-31T01:28:57.605Z,17.74
2022-08-31T01:30:00.038Z,17.69
2022-08-31T01:31:04.980Z,17.68
2022-08-31T01:32:07.227Z,17.66
2022-08-31T01:33:09.621Z,17.68
2022-08-31T01:34:11.603Z,17.72
2022-08-31T01:35:13.418Z,17.78
2022-08-31T01:36:16.320Z,17.86
2022-08-31T01:37:18.339Z,17.91
2022-08-31T01:38:32.051Z,17.96
2022-08-31T01:39:33.899Z,18.01
2022-08-31T01:40:37.722Z,18.06
2022-08-31T01:41:43.704Z,18.09
2022-08-31T01:42:45.717Z,18.13
2022-08-31T01:43:47.618Z,18.16
2022-08-31T01:44:49.487Z,18.19
2022-08-31T01:45:52.074Z,18.23
2022-08-31T01:46:54.185Z,18.24
2022-08-31T01:47:56.041Z,18.25
2022-08-31T01:48:57.881Z,18.24
2022-08-31T01:49:59.737Z,18.26
2022-08-31T01:51:01.944Z,18.28
2022-08-31T01:52:04.569Z,18.30
2022-08-31T01:53:06.373Z,18.28
2022-08-31T01:54:08.259Z,18.22
2022-08-31T01:55:10.197Z,18.21
2022-08-31T01:56:13.752Z,18.18
2022-08-31T01:57:16.245Z,18.17
2022-08-31T01:58:23.629Z,18.12
2022-08-31T01:59:25.501Z,18.13
2022-08-31T02:00:29.158Z,18.15
2022-08-31T02:01:33.692Z,18.16
2022-08-31T02:02:36.801Z,18.17
2022-08-31T02:03:38.708Z,18.18
2022-08-31T02:04:40.584Z,18.19
2022-08-31T02:05:42.437Z,18.22
2022-08-31T02:06:45.419Z,18.23
2022-08-31T02:07:47.457Z,18.23
2022-08-31T02:08:49.389Z,18.22
2022-08-31T02:09:51.286Z,18.18
2022-08-31T02:10:53.220Z,18.19
2022-08-31T02:11:55.205Z,18.21
2022-08-31T02:12:57.079Z,18.19
2022-08-31T02:13:58.925Z,18.18
2022-08-31T02:15:00.862Z,18.17
2022-08-31T02:16:03.053Z,18.17
2022-08-31T02:17:05.155Z,18.12
2022-08-31T02:18:07.577Z,18.08
2022-08-31T02:19:09.596Z,18.03
2022-08-31T02:20:12.916Z,18.00
2022-08-31T02:21:14.767Z,18.01
2022-08-31T02:22:16.642Z,18.03
2022-08-31T02:23:18.720Z,18.02
2022-08-31T02:24:20.590Z,18.05
2022-08-31T02:25:22.428Z,18.09
2022-08-31T02:26:24.712Z,18.14
2022-08-31T02:27:26.841Z,18.15
2022-08-31T02:28:28.910Z,18.17
2022-08-31T02:29:30.852Z,18.18
2022-08-31T02:30:33.118Z,18.22
2022-08-31T02:31:35.585Z,18.24
2022-08-31T02:32:37.513Z,18.24
2022-08-31T02:33:39.664Z,18.17
2022-08-31T02:34:41.570Z,18.16
2022-08-31T02:35:43.906Z,18.16
2022-08-31T02:36:45.813Z,18.17
2022-08-31T02:37:48.803Z,18.18
2022-08-31T02:38:51.145Z,18.21
2022-08-31T02:39:53.154Z,18.20
2022-08-31T02:40:55.065Z,18.21
2022-08-31T02:41:56.971Z,18.18
2022-08-31T02:42:58.950Z,18.15
2022-08-31T02:44:00.812Z,18.12
2022-08-31T02:45:02.680Z,18.13
2022-08-31T02:46:04.822Z,18.16
2022-08-31T02:47:06.710Z,18.17
2022-08-31T02:48:10.112Z,18.18
2022-08-31T02:49:11.929Z,18.19
2022-08-31T02:50:13.739Z,18.21
2022-08-31T02:51:15.569Z,18.23
2022-08-31T02:52:17.412Z,18.26
2022-08-31T02:53:20.625Z,18.28
2022-08-31T02:54:22.559Z,18.24
2022-08-31T02:55:24.905Z,18.16
2022-08-31T02:56:26.800Z,18.15
2022-08-31T02:57:28.745Z,18.15
2022-08-31T02:58:30.693Z,18.17
2022-08-31T02:59:32.466Z,18.18
2022-08-31T03:00:34.769Z,18.19
2022-08-31T03:01:37.500Z,18.22
2022-08-31T03:02:41.374Z,18.25
2022-08-31T03:03:46.511Z,18.27
2022-08-31T03:04:50.565Z,18.26
2022-08-31T03:05:52.390Z,18.26
2022-08-31T03:06:54.291Z,18.27
2022-08-31T03:07:56.158Z,18.29
2022-08-31T03:09:00.499Z,18.29
2022-08-31T03:10:02.801Z,18.31
2022-08-31T03:11:04.598Z,18.32
2022-08-31T03:12:06.511Z,18.34
2022-08-31T03:13:08.292Z,18.35
2022-08-31T03:14:10.160Z,18.35
2022-08-31T03:15:12.428Z,18.32
2022-08-31T03:16:15.763Z,18.30
2022-08-31T03:17:17.621Z,18.31
2022-08-31T03:18:19.498Z,18.31
2022-08-31T03:19:22.069Z,18.31
2022-08-31T03:20:25.424Z,18.32
2022-08-31T03:21:27.420Z,18.34
2022-08-31T03:22:29.777Z,18.34
2022-08-31T03:23:32.245Z,18.34
2022-08-31T03:24:34.173Z,18.34
2022-08-31T03:25:35.995Z,18.37
2022-08-31T03:26:41.475Z,18.38
2022-08-31T03:27:44.060Z,18.39
2022-08-31T03:28:45.958Z,18.39
2022-08-31T03:29:47.727Z,18.38
2022-08-31T03:30:49.624Z,18.36
2022-08-31T03:31:51.560Z,18.34
2022-08-31T03:32:54.336Z,18.34
2022-08-31T03:34:03.365Z,18.34
2022-08-31T03:35:06.250Z,18.34
2022-08-31T03:36:08.029Z,18.36
2022-08-31T03:37:09.907Z,18.37
2022-08-31T03:38:16.196Z,18.38
2022-08-31T03:39:18.090Z,18.39
2022-08-31T03:40:20.015Z,18.38
2022-08-31T03:41:23.239Z,18.38
2022-08-31T03:42:25.691Z,18.39
2022-08-31T03:43:29.469Z,18.39
2022-08-31T03:44:31.389Z,18.39
2022-08-31T03:45:35.404Z,18.40
2022-08-31T03:46:38.075Z,18.39
2022-08-31T03:47:44.517Z,18.38
2022-08-31T03:48:50.260Z,18.36
2022-08-31T03:49:52.076Z,18.33
2022-08-31T03:50:54.706Z,18.33
2022-08-31T03:51:56.568Z,18.35
2022-08-31T03:52:59.078Z,18.34
2022-08-31T03:54:00.880Z,18.35
2022-08-31T03:55:03.025Z,18.35
2022-08-31T03:56:07.360Z,18.37
2022-08-31T03:57:09.297Z,18.38
2022-08-31T03:58:12.020Z,18.39
2022-08-31T03:59:13.987Z,18.38
2022-08-31T04:00:16.681Z,18.34
2022-08-31T04:01:18.571Z,18.32
2022-08-31T04:02:20.755Z,18.32
2022-08-31T04:03:23.543Z,18.34
2022-08-31T04:04:25.324Z,18.34
2022-08-31T04:05:31.504Z,18.33
2022-08-31T04:06:33.835Z,18.34
2022-08-31T04:07:42.707Z,18.33
2022-08-31T04:08:45.015Z,18.30
2022-08-31T04:09:47.647Z,18.29
2022-08-31T04:10:50.941Z,18.27
2022-08-31T04:11:52.926Z,18.28
2022-08-31T04:12:54.718Z,18.28
2022-08-31T04:13:57.696Z,18.28
2022-08-31T04:14:59.795Z,18.28
2022-08-31T04:16:01.802Z,18.28
2022-08-31T04:17:03.697Z,18.29
2022-08-31T04:18:06.179Z,18.31
2022-08-31T04:19:09.043Z,18.31
2022-08-31T04:20:10.921Z,18.33
2022-08-31T04:21:17.339Z,18.33
2022-08-31T04:22:19.136Z,18.34
2022-08-31T04:23:20.964Z,18.35
2022-08-31T04:24:23.064Z,18.35
2022-08-31T04:25:24.891Z,18.36
2022-08-31T04:26:37.162Z,18.37
2022-08-31T04:27:39.136Z,18.37
2022-08-31T04:28:40.991Z,18.38
2022-08-31T04:29:42.895Z,18.39
2022-08-31T04:30:44.845Z,18.41
2022-08-31T04:31:47.490Z,18.41
2022-08-31T04:32:49.802Z,18.41
2022-08-31T04:33:52.382Z,18.39
2022-08-31T04:34:56.484Z,18.42
2022-08-31T04:35:58.569Z,18.44
2022-08-31T04:37:00.444Z,18.45
2022-08-31T04:38:02.316Z,18.47
2022-08-31T04:39:04.784Z,18.46
2022-08-31T04:40:07.466Z,18.46
2022-08-31T04:41:11.039Z,18.44
2022-08-31T04:42:13.748Z,18.45
2022-08-31T04:43:15.654Z,18.47
2022-08-31T04:44:19.957Z,18.46
2022-08-31T04:45:23.324Z,18.47
2022-08-31T04:46:26.147Z,18.45
2022-08-31T04:47:28.116Z,18.45
2022-08-31T04:48:30.050Z,18.46
2022-08-31T04:49:31.942Z,18.40
2022-08-31T04:50:33.707Z,18.35
2022-08-31T04:51:36.408Z,18.36
2022-08-31T04:52:38.763Z,18.38
2022-08-31T04:53:41.198Z,18.38
2022-08-31T04:54:42.975Z,18.39
2022-08-31T04:55:44.797Z,18.40
2022-08-31T04:56:46.687Z,18.42
2022-08-31T04:57:48.466Z,18.45
2022-08-31T04:58:54.720Z,18.41
2022-08-31T04:59:56.592Z,18.38
2022-08-31T05:00:58.418Z,18.36
2022-08-31T05:02:01.015Z,18.35
2022-08-31T05:03:02.889Z,18.36
2022-08-31T05:04:05.639Z,18.38
2022-08-31T05:05:07.619Z,18.41
2022-08-31T05:06:13.328Z,18.43
2022-08-31T05:07:15.125Z,18.46
2022-08-31T05:08:16.976Z,18.48
2022-08-31T05:09:20.775Z,18.49
2022-08-31T05:10:23.636Z,18.49
2022-08-31T05:11:26.732Z,18.47
2022-08-31T05:12:28.579Z,18.44
2022-08-31T05:13:30.425Z,18.44
2022-08-31T05:14:32.336Z,18.46
2022-08-31T05:15:34.271Z,18.45
2022-08-31T05:16:37.974Z,18.45
2022-08-31T05:17:39.742Z,18.42
2022-08-31T05:18:42.604Z,18.38
2022-08-31T05:19:44.642Z,18.38
2022-08-31T05:20:47.124Z,18.38
2022-08-31T05:21:49.263Z,18.38
2022-08-31T05:22:51.332Z,18.33
2022-08-31T05:23:53.597Z,18.29
2022-08-31T05:24:55.474Z,18.31
2022-08-31T05:25:57.263Z,18.33
2022-08-31T05:26:59.139Z,18.36
2022-08-31T05:28:00.969Z,18.39
2022-08-31T05:29:04.572Z,18.38
2022-08-31T05:30:09.192Z,18.38
2022-08-31T05:31:11.018Z,18.42
2022-08-31T05:32:13.024Z,18.44
2022-08-31T05:33:15.265Z,18.47
2022-08-31T05:34:17.989Z,18.42
2022-08-31T05:35:19.848Z,18.38
2022-08-31T05:36:21.646Z,18.38
2022-08-31T05:37:24.473Z,18.38
2022-08-31T05:38:26.429Z,18.30
2022-08-31T05:39:28.282Z,18.21
2022-08-31T05:40:30.111Z,18.18
2022-08-31T05:41:32.118Z,18.15
2022-08-31T05:42:34.567Z,18.13
2022-08-31T05:43:36.608Z,18.15
2022-08-31T05:44:38.720Z,18.15
2022-08-31T05:45:43.391Z,18.13
2022-08-31T05:46:45.288Z,18.11
2022-08-31T05:47:56.804Z,18.13
2022-08-31T05:48:58.575Z,18.17
2022-08-31T05:50:00.377Z,18.21
2022-08-31T05:51:04.039Z,18.27
2022-08-31T05:52:06.497Z,18.32
2022-08-31T05:53:08.889Z,18.36
2022-08-31T05:54:11.116Z,18.40
2022-08-31T05:55:13.163Z,18.42
2022-08-31T05:56:18.929Z,18.42
2022-08-31T05:57:25.863Z,18.45
2022-08-31T05:58:28.788Z,18.46
2022-08-31T05:59:31.491Z,18.45
2022-08-31T06:00:33.414Z,18.45
2022-08-31T06:01:37.716Z,18.44
2022-08-31T06:02:40.294Z,18.43
2022-08-31T06:03:42.628Z,18.41
2022-08-31T06:04:44.497Z,18.39
2022-08-31T06:05:46.353Z,18.38
2022-08-31T06:06:48.200Z,18.41
2022-08-31T06:07:50.714Z,18.42
2022-08-31T06:08:52.851Z,18.45
2022-08-31T06:09:54.862Z,18.47
2022-08-31T06:11:01.011Z,18.46
2022-08-31T06:12:03.881Z,18.48
2022-08-31T06:13:06.890Z,18.54
2022-08-31T06:14:10.346Z,18.57
2022-08-31T06:15:12.248Z,18.63
2022-08-31T06:16:14.757Z,18.65
2022-08-31T06:17:17.697Z,18.66
2022-08-31T06:18:21.431Z,18.67
2022-08-31T06:19:23.311Z,18.63
2022-08-31T06:20:25.210Z,18.64
2022-08-31T06:21:33.898Z,18.69
2022-08-31T06:22:36.772Z,18.70
2022-08-31T06:23:39.596Z,18.68
2022-08-31T06:24:41.845Z,18.66
2022-08-31T06:25:43.671Z,18.62
2022-08-31T06:26:58.935Z,18.63
2022-08-31T06:28:01.916Z,18.64
2022-08-31T06:29:05.369Z,18.61
2022-08-31T06:30:08.180Z,18.61
2022-08-31T06:31:18.857Z,18.62
2022-08-31T06:32:21.907Z,18.59
2022-08-31T06:33:23.804Z,18.56
2022-08-31T06:34:25.651Z,18.53
2022-08-31T06:35:27.633Z,18.56
2022-08-31T06:36:30.475Z,18.59
2022-08-31T06:37:32.316Z,18.63
2022-08-31T06:38:34.296Z,18.65
2022-08-31T06:39:36.470Z,18.68
2022-08-31T06:40:38.354Z,18.71
2022-08-31T06:41:41.003Z,18.74
2022-08-31T06:42:42.848Z,18.74
2022-08-31T06:43:44.969Z,18.77
2022-08-31T06:44:46.957Z,18.81
2022-08-31T06:45:48.842Z,18.84
2022-08-31T06:46:51.418Z,18.87
2022-08-31T06:47:53.480Z,18.86
2022-08-31T06:48:56.084Z,18.84
2022-08-31T06:49:58.089Z,18.82
2022-08-31T06:51:00.480Z,18.84
2022-08-31T06:52:02.770Z,18.87
2022-08-31T06:53:04.876Z,18.88
2022-08-31T06:54:27.899Z,18.87
2022-08-31T06:55:30.022Z,18.78
2022-08-31T06:56:31.891Z,18.72
2022-08-31T06:57:35.537Z,18.68
2022-08-31T06:58:38.217Z,18.68
2022-08-31T06:59:40.128Z,18.68
2022-08-31T07:00:43.196Z,18.66
2022-08-31T07:01:45.085Z,18.65
2022-08-31T07:02:57.214Z,18.62
2022-08-31T07:04:00.490Z,18.61
2022-08-31T07:05:02.271Z,18.63
2022-08-31T07:06:14.879Z,18.67
2022-08-31T07:07:16.786Z,18.70
2022-08-31T07:08:20.148Z,18.72
2022-08-31T07:09:22.088Z,18.74
2022-08-31T07:10:23.972Z,18.77
2022-08-31T07:11:27.906Z,18.77
2022-08-31T07:12:31.012Z,18.84
2022-08-31T07:13:33.068Z,18.86
2022-08-31T07:14:36.012Z,18.87
2022-08-31T07:15:37.897Z,18.89
2022-08-31T07:16:40.243Z,18.90
2022-08-31T07:17:42.126Z,18.91
2022-08-31T07:18:44.509Z,18.90
2022-08-31T07:19:46.310Z,18.90
2022-08-31T07:20:48.296Z,18.92
2022-08-31T07:21:52.189Z,18.96
2022-08-31T07:22:53.986Z,18.99
2022-08-31T07:23:57.710Z,19.04
2022-08-31T07:24:59.622Z,19.04
2022-08-31T07:26:09.325Z,19.07
2022-08-31T07:27:16.620Z,19.07
2022-08-31T07:28:18.558Z,19.11
2022-08-31T07:29:21.992Z,19.16
2022-08-31T07:30:24.104Z,19.19
2022-08-31T07:31:30.655Z,19.18
2022-08-31T07:32:32.508Z,19.22
2022-08-31T07:33:39.247Z,19.24
2022-08-31T07:34:41.719Z,19.25
2022-08-31T07:35:43.648Z,19.26
2022-08-31T07:37:04.025Z,19.30
2022-08-31T07:38:24.337Z,19.28
2022-08-31T07:39:45.360Z,19.32
2022-08-31T07:41:05.739Z,19.32
2022-08-31T07:42:10.334Z,19.32
2022-08-31T07:43:12.485Z,19.30
2022-08-31T07:44:15.211Z,19.29
2022-08-31T07:45:22.636Z,19.31
2022-08-31T07:46:30.331Z,19.35
2022-08-31T07:47:32.812Z,19.39
2022-08-31T07:48:34.720Z,19.42
2022-08-31T07:49:37.463Z,19.45
2022-08-31T07:50:45.224Z,19.49
2022-08-31T07:51:52.767Z,19.53
2022-08-31T07:52:56.072Z,19.56
2022-08-31T07:53:57.945Z,19.57
2022-08-31T07:55:08.086Z,19.49
2022-08-31T07:56:09.980Z,19.45
2022-08-31T07:57:11.900Z,19.47
2022-08-31T07:58:15.718Z,19.53
2022-08-31T07:59:19.337Z,19.56
2022-08-31T08:00:28.558Z,19.59
2022-08-31T08:01:32.475Z,19.65
2022-08-31T08:02:39.019Z,19.65
2022-08-31T08:03:45.072Z,19.61
2022-08-31T08:04:48.276Z,19.60
2022-08-31T08:05:50.787Z,19.62
2022-08-31T08:06:56.333Z,19.65
2022-08-31T08:08:10.667Z,19.69
2022-08-31T08:09:25.008Z,19.76
2022-08-31T08:10:27.857Z,19.81
2022-08-31T08:11:29.773Z,19.81
2022-08-31T08:12:35.563Z,19.83
2022-08-31T08:13:38.343Z,19.88
2022-08-31T08:14:40.454Z,19.89
2022-08-31T08:15:42.337Z,19.92
2022-08-31T08:16:44.288Z,19.98
2022-08-31T08:17:46.216Z,19.99
2022-08-31T08:18:48.204Z,20.04
2022-08-31T08:19:50.066Z,20.08
2022-08-31T08:20:53.067Z,20.11
2022-08-31T08:21:55.872Z,20.14
2022-08-31T08:22:58.129Z,20.16
2022-08-31T08:24:00.435Z,20.20
2022-08-31T08:25:02.622Z,20.24
2022-08-31T08:26:09.506Z,20.27
2022-08-31T08:27:13.905Z,20.30
2022-08-31T08:29:40.375Z,20.32
2022-08-31T08:30:44.303Z,20.29
2022-08-31T08:31:53.351Z,20.28
2022-08-31T08:32:55.260Z,20.29
2022-08-31T08:33:57.261Z,20.30
2022-08-31T08:34:59.561Z,20.32
2022-08-31T08:36:03.399Z,20.32
2022-08-31T08:37:06.270Z,20.29
2022-08-31T08:38:08.193Z,20.29
2022-08-31T08:39:10.467Z,20.31
2022-08-31T08:40:31.369Z,20.29
2022-08-31T08:41:35.094Z,20.32
2022-08-31T08:42:36.987Z,20.33
2022-08-31T08:43:40.836Z,20.34
2022-08-31T08:44:45.905Z,20.33
2022-08-31T08:45:50.338Z,20.33
2022-08-31T08:46:53.970Z,20.33
2022-08-31T08:47:57.223Z,20.31
2022-08-31T08:49:01.109Z,20.29
2022-08-31T08:50:06.932Z,20.24
2022-08-31T08:51:19.607Z,20.21
2022-08-31T08:52:21.376Z,20.21
2022-08-31T08:53:25.331Z,20.21
2022-08-31T08:54:31.040Z,20.21
2022-08-31T08:55:37.309Z,20.21
2022-08-31T08:56:42.383Z,20.16
2022-08-31T08:57:45.473Z,20.14
2022-08-31T08:58:47.390Z,20.15
2022-08-31T08:59:51.288Z,20.14
2022-08-31T09:00:54.421Z,20.12
2022-08-31T09:02:02.420Z,20.15
2022-08-31T09:03:07.264Z,20.13
2022-08-31T09:04:27.524Z,20.15
2022-08-31T09:05:52.542Z,20.10
2022-08-31T09:07:23.229Z,20.10
2022-08-31T09:08:57.369Z,20.09
2022-08-31T09:10:07.847Z,20.09
2022-08-31T09:11:20.419Z,20.06
2022-08-31T09:12:32.398Z,20.08
2022-08-31T09:14:06.520Z,20.08
2022-08-31T09:15:36.614Z,20.05
2022-08-31T09:16:42.555Z,20.05
2022-08-31T09:17:59.985Z,20.05
2022-08-31T09:19:05.296Z,20.08
2022-08-31T09:20:07.883Z,20.10
2022-08-31T09:21:27.604Z,20.12
2022-08-31T09:22:30.540Z,20.10
2022-08-31T09:23:35.841Z,20.11
2022-08-31T09:24:38.781Z,20.12
2022-08-31T09:25:52.721Z,20.14
2022-08-31T09:27:18.814Z,20.12
2022-08-31T09:28:34.322Z,20.11
2022-08-31T09:29:45.310Z,20.13
2022-08-31T09:30:53.232Z,20.15
2022-08-31T09:32:06.467Z,20.15
2022-08-31T09:33:15.960Z,20.16
2022-08-31T09:34:29.819Z,20.16
2022-08-31T09:35:41.500Z,20.16
2022-08-31T09:36:43.463Z,20.17
2022-08-31T09:37:57.579Z,20.17
2022-08-31T09:39:14.047Z,20.18
2022-08-31T09:40:24.448Z,20.17
2022-08-31T09:41:29.330Z,20.17
2022-08-31T09:42:33.888Z,20.19
2022-08-31T09:43:41.183Z,20.18
2022-08-31T09:44:43.947Z,20.18
2022-08-31T09:45:53.214Z,20.19
2022-08-31T09:47:01.561Z,20.18
2022-08-31T09:48:05.263Z,20.17
2022-08-31T09:49:18.965Z,20.16
2022-08-31T09:50:34.969Z,20.14
2022-08-31T09:51:38.762Z,20.12
2022-08-31T09:52:59.130Z,20.10
2022-08-31T09:54:25.015Z,20.13
2022-08-31T09:55:28.208Z,20.14
2022-08-31T09:56:30.207Z,20.16
2022-08-31T09:57:50.914Z,20.13
2022-08-31T09:59:03.112Z,20.10
2022-08-31T10:00:05.195Z,20.08
2022-08-31T10:01:13.571Z,20.05
2022-08-31T10:02:23.020Z,20.04
2022-08-31T10:03:29.019Z,20.02
2022-08-31T10:04:36.927Z,20.03
2022-08-31T10:05:43.884Z,20.03
2022-08-31T10:06:53.315Z,20.02
2022-08-31T10:08:04.572Z,20.00
2022-08-31T10:09:10.745Z,19.99
2022-08-31T10:10:28.114Z,19.98
2022-08-31T10:11:35.385Z,19.92
2022-08-31T10:12:49.279Z,19.89
2022-08-31T10:13:58.053Z,19.87
2022-08-31T10:15:04.344Z,19.82
2022-08-31T10:16:17.359Z,19.82
2022-08-31T10:17:47.402Z,19.81
2022-08-31T10:18:59.237Z,19.83
2022-08-31T10:20:25.310Z,19.82
2022-08-31T10:21:51.630Z,19.81
2022-08-31T10:22:56.747Z,19.79
2022-08-31T10:23:59.163Z,19.76
2022-08-31T10:25:12.174Z,19.73
2022-08-31T10:26:19.175Z,19.72
2022-08-31T10:27:31.819Z,19.71
2022-08-31T10:28:40.758Z,19.68
2022-08-31T10:29:46.379Z,19.65
2022-08-31T10:30:52.157Z,19.62
2022-08-31T10:31:55.921Z,19.62
2022-08-31T10:33:05.261Z,19.57
2022-08-31T10:34:25.596Z,19.57
2022-08-31T10:35:46.090Z,19.54
2022-08-31T10:36:50.405Z,19.53
2022-08-31T10:37:55.730Z,19.52
2022-08-31T10:38:58.175Z,19.49
2022-08-31T10:40:05.822Z,19.45
2022-08-31T10:41:10.647Z,19.42
2022-08-31T10:42:17.359Z,19.41
2022-08-31T10:43:21.709Z,19.35
2022-08-31T10:44:36.810Z,19.34
2022-08-31T10:45:40.630Z,19.33
2022-08-31T10:46:42.974Z,19.34
2022-08-31T10:47:46.892Z,19.33
2022-08-31T10:48:54.805Z,19.31
2022-08-31T10:49:57.979Z,19.27
2022-08-31T10:51:14.431Z,19.26
2022-08-31T10:52:21.632Z,19.26
2022-08-31T10:53:27.658Z,19.23
2022-08-31T10:54:33.255Z,19.20
2022-08-31T10:55:40.650Z,19.17
2022-08-31T10:56:59.422Z,19.11
2022-08-31T10:58:13.601Z,19.08
2022-08-31T10:59:21.346Z,19.05
2022-08-31T11:00:46.140Z,19.04
2022-08-31T11:02:06.515Z,19.06
2022-08-31T11:03:11.470Z,19.04
2022-08-31T11:04:20.772Z,19.05
2022-08-31T11:05:27.394Z,19.07
2022-08-31T11:06:29.186Z,19.08
2022-08-31T11:07:36.068Z,19.08
2022-08-31T11:08:49.257Z,19.04
2022-08-31T11:10:09.399Z,19.02
2022-08-31T11:11:17.602Z,18.93
2022-08-31T11:12:23.682Z,18.94
2022-08-31T11:13:26.434Z,18.93
2022-08-31T11:14:28.214Z,18.93
2022-08-31T11:15:43.936Z,18.92
2022-08-31T11:16:46.685Z,18.91
2022-08-31T11:17:54.307Z,18.91
2022-08-31T11:18:56.119Z,18.90
2022-08-31T11:20:09.860Z,18.91
2022-08-31T11:21:29.060Z,18.88
2022-08-31T11:22:46.558Z,18.86
2022-08-31T11:23:51.399Z,18.82
2022-08-31T11:25:03.743Z,18.81
2022-08-31T11:26:14.458Z,18.84
2022-08-31T11:27:23.754Z,18.86
2022-08-31T11:28:34.362Z,18.87
2022-08-31T11:29:48.739Z,18.85
2022-08-31T11:30:51.656Z,18.79
2022-08-31T11:31:55.327Z,18.79
2022-08-31T11:33:00.576Z,18.78
2022-08-31T11:34:16.742Z,18.79
2022-08-31T11:35:42.242Z,18.82
2022-08-31T11:36:55.952Z,18.83
2022-08-31T11:37:59.177Z,18.83
2022-08-31T11:39:03.996Z,18.82
2022-08-31T11:40:10.098Z,18.81
2022-08-31T11:41:31.915Z,18.78
2022-08-31T11:42:42.762Z,18.78
2022-08-31T11:43:46.190Z,18.81
2022-08-31T11:45:23.600Z,18.80
2022-08-31T11:46:29.038Z,18.81
2022-08-31T11:47:30.951Z,18.82
2022-08-31T11:48:51.588Z,18.74
2022-08-31T11:49:57.152Z,18.71
2022-08-31T11:51:04.082Z,18.63
2022-08-31T11:52:10.661Z,18.55
2022-08-31T11:53:35.158Z,18.55
2022-08-31T11:54:42.389Z,18.48
2022-08-31T11:55:52.802Z,18.48
2022-08-31T11:56:57.093Z,18.47
2022-08-31T11:58:07.843Z,18.49
2022-08-31T11:59:34.337Z,18.48
2022-08-31T12:00:41.896Z,18.48
2022-08-31T12:01:45.318Z,18.45
2022-08-31T12:03:03.014Z,18.45
2022-08-31T12:04:06.354Z,18.45
2022-08-31T12:05:08.502Z,18.42
2022-08-31T12:06:25.892Z,18.38
2022-08-31T12:07:31.953Z,18.39
2022-08-31T12:08:47.074Z,18.36
2022-08-31T12:09:49.485Z,18.34
2022-08-31T12:10:51.475Z,18.33
2022-08-31T12:11:57.686Z,18.34
2022-08-31T12:13:07.725Z,18.35
2022-08-31T12:14:26.348Z,18.34
2022-08-31T12:15:34.807Z,18.35
2022-08-31T12:16:42.551Z,18.39
2022-08-31T12:17:53.362Z,18.39
2022-08-31T12:19:39.687Z,18.37
2022-08-31T12:21:13.532Z,18.34
2022-08-31T12:22:59.455Z,18.33
2022-08-31T12:24:06.974Z,18.29
2022-08-31T12:25:14.285Z,18.26
2022-08-31T12:26:19.224Z,18.22
2022-08-31T12:27:35.787Z,18.21
2022-08-31T12:28:49.576Z,18.23
2022-08-31T12:29:51.478Z,18.22
2022-08-31T12:30:55.132Z,18.23
2022-08-31T12:32:05.452Z,18.26
2022-08-31T12:33:15.318Z,18.26
2022-08-31T12:34:20.019Z,18.27
2022-08-31T12:35:27.007Z,18.28
2022-08-31T12:36:30.083Z,18.26
2022-08-31T12:37:33.562Z,18.28
2022-08-31T12:38:35.382Z,18.29
2022-08-31T12:39:37.279Z,18.29
2022-08-31T12:40:43.411Z,18.27
2022-08-31T12:41:49.667Z,18.29
2022-08-31T12:42:57.117Z,18.30
2022-08-31T12:43:59.004Z,18.32
2022-08-31T12:45:05.951Z,18.33
2022-08-31T12:46:10.920Z,18.32
2022-08-31T12:47:15.478Z,18.28
2022-08-31T12:48:20.334Z,18.25
2022-08-31T12:49:39.156Z,18.26
2022-08-31T12:50:45.376Z,18.28
2022-08-31T12:51:47.182Z,18.30
2022-08-31T12:52:49.054Z,18.28
2022-08-31T12:53:56.614Z,18.27
2022-08-31T12:55:14.387Z,18.29
2022-08-31T12:56:34.442Z,18.31
2022-08-31T12:57:45.268Z,18.34
2022-08-31T12:58:51.514Z,18.33
2022-08-31T13:00:01.635Z,18.32
2022-08-31T13:01:08.634Z,18.32
2022-08-31T13:02:13.322Z,18.29
2022-08-31T13:03:21.828Z,18.28
2022-08-31T13:04:24.628Z,18.29
2022-08-31T13:05:34.610Z,18.28
2022-08-31T13:06:38.371Z,18.27
2022-08-31T13:07:40.281Z,18.28
2022-08-31T13:08:46.529Z,18.29
2022-08-31T13:10:01.377Z,18.32
2022-08-31T13:11:24.991Z,18.31
2022-08-31T13:12:26.837Z,18.32
2022-08-31T13:13:29.785Z,18.32
2022-08-31T13:14:42.331Z,18.31
2022-08-31T13:15:44.541Z,18.32
2022-08-31T13:16:48.234Z,18.31
2022-08-31T13:17:50.258Z,18.32
2022-08-31T13:18:58.630Z,18.30
2022-08-31T13:20:02.971Z,18.29
2022-08-31T13:21:07.619Z,18.26
2022-08-31T13:22:12.352Z,18.25
2022-08-31T13:23:25.008Z,18.24
2022-08-31T13:24:31.085Z,18.22
2022-08-31T13:25:36.397Z,18.23
2022-08-31T13:26:38.984Z,18.23
2022-08-31T13:27:47.039Z,18.24
2022-08-31T13:28:51.387Z,18.24
2022-08-31T13:29:56.281Z,18.24
2022-08-31T13:31:03.034Z,18.22
2022-08-31T13:32:05.330Z,18.23
2022-08-31T13:33:36.354Z,18.22
2022-08-31T13:34:44.336Z,18.22
2022-08-31T13:35:50.030Z,18.22
2022-08-31T13:36:55.406Z,18.21
2022-08-31T13:38:05.615Z,18.20
2022-08-31T13:39:19.529Z,18.22
2022-08-31T13:40:25.043Z,18.23
2022-08-31T13:41:41.718Z,18.24
2022-08-31T13:42:45.894Z,18.19
2022-08-31T13:43:57.238Z,18.19
2022-08-31T13:45:03.389Z,18.21
2022-08-31T13:46:05.534Z,18.18
2022-08-31T13:47:20.338Z,18.19
2022-08-31T13:48:28.643Z,18.18
2022-08-31T13:49:38.428Z,18.18
2022-08-31T13:50:53.435Z,18.19
2022-08-31T13:51:55.760Z,18.23
2022-08-31T13:54:28.287Z,18.24
2022-08-31T13:55:42.212Z,18.25
2022-08-31T13:56:59.105Z,18.21
2022-08-31T13:58:08.330Z,18.12
2022-08-31T13:59:24.760Z,18.12
2022-08-31T14:00:32.830Z,18.12
2022-08-31T14:01:36.965Z,18.08
2022-08-31T14:02:39.801Z,18.11
2022-08-31T14:03:57.487Z,18.15
2022-08-31T14:05:00.775Z,18.16
2022-08-31T14:06:24.237Z,18.15
2022-08-31T14:07:45.977Z,18.19
2022-08-31T14:08:50.224Z,18.19